createdAt,value
2023-01-18T00:01:23.278Z,12.15
2023-01-18T00:03:51.502Z,14.93
2023-01-18T00:06:19.346Z,17.65
2023-01-18T00:08:50.457Z,18.08
2023-01-18T00:11:19.290Z,10.65
2023-01-18T00:13:48.218Z,12.77
2023-01-18T00:16:21.487Z,16.20
2023-01-18T00:18:58.603Z,13.45
2023-01-18T00:21:29.653Z,15.25
2023-01-18T00:23:58.193Z,14.40
2023-01-18T00:26:26.113Z,16.70
2023-01-18T00:28:57.359Z,17.87
2023-01-18T00:31:25.738Z,14.40
2023-01-18T00:33:53.667Z,13.00
2023-01-18T00:36:21.417Z,12.35
2023-01-18T00:38:54.324Z,16.15
2023-01-18T00:41:25.529Z,14.77
2023-01-18T00:43:54.267Z,12.02
2023-01-18T00:46:27.630Z,11.43
2023-01-18T00:48:57.592Z,15.23
2023-01-18T00:51:25.945Z,15.80
2023-01-18T00:53:56.524Z,17.60
2023-01-18T00:56:24.781Z,15.98
2023-01-18T00:58:52.682Z,11.30
2023-01-18T01:01:20.683Z,10.75
2023-01-18T01:04:07.341Z,14.13
2023-01-18T01:06:47.255Z,11.23
2023-01-18T01:09:23.114Z,10.57
2023-01-18T01:12:10.268Z,12.93
2023-01-18T01:15:00.581Z,8.23
2023-01-18T01:17:53.601Z,11.20
2023-01-18T01:20:41.594Z,11.77
2023-01-18T01:23:32.811Z,16.17
2023-01-18T01:26:14.518Z,14.15
2023-01-18T01:28:50.483Z,11.10
2023-01-18T01:31:20.418Z,9.48
2023-01-18T01:33:50.980Z,14.23
2023-01-18T01:36:26.537Z,10.00
2023-01-18T01:38:57.554Z,8.90
2023-01-18T01:41:33.140Z,11.88
2023-01-18T01:44:13.557Z,13.90
2023-01-18T01:46:56.389Z,8.73
2023-01-18T01:49:33.162Z,12.05
2023-01-18T01:52:06.775Z,9.00
2023-01-18T01:54:42.614Z,12.40
2023-01-18T01:57:31.546Z,9.90
2023-01-18T02:00:02.514Z,8.57
2023-01-18T02:02:42.889Z,16.12
2023-01-18T02:05:14.537Z,9.68
2023-01-18T02:07:42.551Z,9.65
2023-01-18T02:10:14.236Z,10.90
2023-01-18T02:12:47.464Z,10.07
2023-01-18T02:15:15.715Z,9.57
2023-01-18T02:18:05.401Z,13.13
2023-01-18T02:20:51.168Z,9.93
2023-01-18T02:23:47.076Z,13.62
2023-01-18T02:26:50.627Z,14.25
2023-01-18T02:29:28.832Z,10.50
2023-01-18T02:32:14.521Z,5.18
2023-01-18T02:35:02.109Z,11.07
2023-01-18T02:37:56.448Z,10.18
2023-01-18T02:40:57.991Z,7.03
2023-01-18T02:43:45.649Z,12.40
2023-01-18T02:46:31.117Z,9.48
2023-01-18T02:49:04.574Z,10.10
2023-01-18T02:51:33.222Z,9.23
2023-01-18T02:54:02.937Z,13.15
2023-01-18T02:56:53.002Z,4.82
2023-01-18T02:59:32.791Z,7.18
2023-01-18T03:02:17.519Z,8.63
2023-01-18T03:04:54.695Z,9.50
2023-01-18T03:07:29.162Z,8.00
2023-01-18T03:10:05.530Z,9.43
2023-01-18T03:12:56.503Z,9.93
2023-01-18T03:16:03.318Z,9.40
2023-01-18T03:19:06.141Z,11.15
2023-01-18T03:21:38.637Z,8.80
2023-01-18T03:24:09.720Z,12.55
2023-01-18T03:26:43.862Z,9.70
2023-01-18T03:29:33.779Z,7.07
2023-01-18T03:32:36.157Z,7.70
2023-01-18T03:35:10.587Z,10.85
2023-01-18T03:37:43.782Z,10.30
2023-01-18T03:42:52.034Z,9.93
2023-01-18T03:45:28.918Z,8.98
2023-01-18T03:47:57.160Z,11.10
2023-01-18T03:50:52.211Z,5.93
2023-01-18T03:53:33.079Z,7.22
2023-01-18T03:56:27.597Z,4.22
2023-01-18T03:59:00.562Z,10.45
2023-01-18T04:01:29.218Z,8.60
2023-01-18T04:04:00.697Z,6.72
2023-01-18T04:06:29.559Z,7.80
2023-01-18T04:08:57.862Z,7.05
2023-01-18T04:11:25.793Z,6.30
2023-01-18T04:13:54.606Z,10.25
2023-01-18T04:16:23.032Z,7.70
2023-01-18T04:18:51.778Z,10.02
2023-01-18T04:21:19.567Z,8.93
2023-01-18T04:23:47.689Z,11.60
2023-01-18T04:26:16.906Z,8.65
2023-01-18T04:28:44.761Z,6.03
2023-01-18T04:31:13.072Z,6.87
2023-01-18T04:33:41.358Z,11.40
2023-01-18T04:36:10.558Z,6.37
2023-01-18T04:38:42.090Z,6.57
2023-01-18T04:41:10.178Z,5.35
2023-01-18T04:43:41.620Z,5.12
2023-01-18T04:46:13.214Z,10.75
2023-01-18T04:48:42.573Z,8.07
2023-01-18T04:51:15.004Z,9.57
2023-01-18T04:53:45.354Z,9.55
2023-01-18T04:56:13.486Z,11.57
2023-01-18T04:58:45.625Z,6.72
2023-01-18T05:01:14.517Z,7.87
2023-01-18T05:03:42.438Z,4.65
2023-01-18T05:06:12.721Z,11.40
2023-01-18T05:08:41.371Z,3.90
2023-01-18T05:11:14.324Z,9.88
2023-01-18T05:13:43.538Z,6.90
2023-01-18T05:16:20.634Z,8.18
2023-01-18T05:18:49.119Z,6.37
2023-01-18T05:21:17.624Z,4.60
2023-01-18T05:23:45.998Z,9.88
2023-01-18T05:26:22.837Z,10.55
2023-01-18T05:28:56.807Z,8.80
2023-01-18T05:31:28.075Z,5.80
2023-01-18T05:33:57.791Z,8.50
2023-01-18T05:36:26.162Z,6.62
2023-01-18T05:38:54.959Z,6.47
2023-01-18T05:41:22.990Z,9.43
2023-01-18T05:43:51.403Z,7.85
2023-01-18T05:46:19.364Z,6.57
2023-01-18T05:48:47.317Z,6.35
2023-01-18T05:51:15.602Z,8.82
2023-01-18T05:53:43.424Z,8.48
2023-01-18T05:56:14.417Z,10.15
2023-01-18T05:58:42.630Z,8.73
2023-01-18T06:01:10.541Z,8.05
2023-01-18T06:03:38.714Z,10.15
2023-01-18T06:06:09.481Z,6.22
2023-01-18T06:08:40.777Z,5.53
2023-01-18T06:11:12.223Z,4.03
2023-01-18T06:13:43.141Z,11.43
2023-01-18T06:16:12.465Z,8.10
2023-01-18T06:18:41.665Z,5.25
2023-01-18T06:21:11.123Z,5.72
2023-01-18T06:23:39.405Z,6.40
2023-01-18T06:26:07.368Z,4.68
2023-01-18T06:28:35.080Z,7.10
2023-01-18T06:31:05.199Z,9.38
2023-01-18T06:33:33.087Z,12.57
2023-01-18T06:36:01.867Z,12.77
2023-01-18T06:38:31.192Z,11.40
2023-01-18T06:40:59.046Z,14.23
2023-01-18T06:43:30.429Z,10.98
2023-01-18T06:45:58.843Z,5.37
2023-01-18T06:48:27.742Z,10.25
2023-01-18T06:50:58.976Z,11.73
2023-01-18T06:53:27.676Z,6.50
2023-01-18T06:55:59.115Z,9.98
2023-01-18T06:58:28.820Z,8.30
2023-01-18T07:00:58.405Z,12.00
2023-01-18T07:03:28.121Z,10.77
2023-01-18T07:05:59.063Z,8.15
2023-01-18T07:08:31.629Z,13.35
2023-01-18T07:11:05.364Z,9.38
2023-01-18T07:13:34.421Z,8.15
2023-01-18T07:16:03.593Z,8.15
2023-01-18T07:18:32.316Z,5.75
2023-01-18T07:21:09.691Z,6.80
2023-01-18T07:23:42.730Z,7.97
2023-01-18T07:26:16.810Z,12.00
2023-01-18T07:28:46.784Z,11.00
2023-01-18T07:31:17.213Z,3.92
2023-01-18T07:33:46.838Z,7.95
2023-01-18T07:36:14.826Z,7.35
2023-01-18T07:38:43.039Z,7.05
2023-01-18T07:41:16.402Z,10.52
2023-01-18T07:43:46.917Z,3.60
2023-01-18T07:46:21.789Z,15.20
2023-01-18T07:48:51.462Z,13.93
2023-01-18T07:51:23.510Z,8.35
2023-01-18T07:53:59.038Z,7.85
2023-01-18T07:56:30.309Z,13.02
2023-01-18T07:59:00.215Z,4.20
2023-01-18T08:01:30.470Z,11.65
2023-01-18T08:03:59.347Z,12.05
2023-01-18T08:06:29.381Z,2.65
2023-01-18T08:08:57.733Z,7.35
2023-01-18T08:11:31.728Z,12.23
2023-01-18T08:14:04.945Z,6.68
2023-01-18T08:16:34.934Z,11.75
2023-01-18T08:19:05.450Z,12.05
2023-01-18T08:21:39.798Z,7.65
2023-01-18T08:24:07.709Z,5.75
2023-01-18T08:26:38.247Z,5.07
2023-01-18T08:29:09.037Z,10.82
2023-01-18T08:31:38.940Z,8.70
2023-01-18T08:34:07.137Z,7.35
2023-01-18T08:36:36.215Z,5.95
2023-01-18T08:39:05.389Z,6.62
2023-01-18T08:41:42.148Z,11.20
2023-01-18T08:44:11.824Z,5.87
2023-01-18T08:46:41.041Z,11.70
2023-01-18T08:49:11.710Z,8.35
2023-01-18T08:51:40.736Z,8.55
2023-01-18T08:54:09.948Z,7.07
2023-01-18T08:56:39.842Z,9.20
2023-01-18T08:59:09.188Z,8.93
2023-01-18T09:01:39.239Z,12.57
2023-01-18T09:04:09.424Z,9.88
2023-01-18T09:06:40.279Z,11.60
2023-01-18T09:09:12.389Z,9.45
2023-01-18T09:11:46.452Z,9.93
2023-01-18T09:14:15.705Z,7.23
2023-01-18T09:16:53.035Z,13.13
2023-01-18T09:19:23.308Z,9.35
2023-01-18T09:21:58.188Z,12.20
2023-01-18T09:24:29.812Z,6.90
2023-01-18T09:26:59.470Z,11.95
2023-01-18T09:29:27.931Z,14.43
2023-01-18T09:31:58.587Z,8.00
2023-01-18T09:34:28.027Z,6.93
2023-01-18T09:36:57.571Z,6.65
2023-01-18T09:39:29.969Z,11.12
2023-01-18T09:42:06.228Z,9.23
2023-01-18T09:44:40.534Z,9.13
2023-01-18T09:47:16.858Z,4.70
2023-01-18T09:50:27.485Z,5.50
2023-01-18T09:53:28.521Z,6.62
2023-01-18T09:56:17.801Z,7.53
2023-01-18T09:59:05.078Z,10.52
2023-01-18T10:01:36.391Z,10.45
2023-01-18T10:06:47.644Z,9.23
2023-01-18T10:09:24.356Z,10.68
2023-01-18T10:12:27.860Z,8.02
2023-01-18T10:15:21.099Z,8.00
2023-01-18T10:17:54.835Z,9.93
2023-01-18T10:20:42.651Z,4.97
2023-01-18T10:24:03.302Z,12.10
2023-01-18T10:26:43.733Z,13.77
2023-01-18T10:29:25.727Z,14.43
2023-01-18T10:32:18.007Z,11.32
2023-01-18T10:34:51.931Z,10.02
2023-01-18T10:37:45.436Z,5.22
2023-01-18T10:40:18.810Z,17.08
2023-01-18T10:43:05.935Z,12.52
2023-01-18T10:45:35.780Z,12.57
2023-01-18T10:48:23.009Z,5.78
2023-01-18T10:50:59.207Z,11.23
2023-01-18T10:53:39.656Z,9.57
2023-01-18T10:56:19.933Z,11.20
2023-01-18T10:58:55.911Z,9.05
2023-01-18T11:01:53.424Z,13.70
2023-01-18T11:04:34.166Z,10.65
2023-01-18T11:07:05.592Z,11.82
2023-01-18T11:09:44.538Z,7.57
2023-01-18T11:12:41.452Z,10.43
2023-01-18T11:15:15.372Z,12.32
2023-01-18T11:17:58.583Z,14.43
2023-01-18T11:23:21.486Z,6.00
2023-01-18T11:25:59.024Z,12.82
2023-01-18T11:28:36.773Z,11.95
2023-01-18T11:31:21.155Z,10.18
2023-01-18T11:33:57.040Z,13.32
2023-01-18T11:36:36.253Z,11.15
2023-01-18T11:39:26.771Z,11.68
2023-01-18T11:42:37.289Z,7.50
2023-01-18T11:45:26.845Z,15.93
2023-01-18T11:48:13.492Z,7.05
2023-01-18T11:50:51.143Z,5.15
2023-01-18T11:53:50.670Z,5.28
2023-01-18T11:56:36.075Z,11.12
2023-01-18T11:59:14.030Z,7.70
2023-01-18T12:02:22.138Z,6.35
2023-01-18T12:05:15.050Z,6.90
2023-01-18T12:08:19.066Z,11.05
2023-01-18T12:10:50.426Z,7.78
2023-01-18T12:13:26.856Z,5.47
2023-01-18T12:16:22.454Z,9.52
2023-01-18T12:18:57.636Z,12.57
2023-01-18T12:21:49.966Z,9.77
2023-01-18T12:27:32.448Z,13.73
2023-01-18T12:30:20.104Z,12.95
2023-01-18T12:33:42.257Z,10.05
2023-01-18T12:36:40.464Z,8.85
2023-01-18T12:39:34.116Z,8.45
2023-01-18T12:42:32.861Z,13.70
2023-01-18T12:45:19.000Z,8.68
2023-01-18T12:48:09.481Z,6.32
2023-01-18T12:50:46.166Z,4.70
2023-01-18T12:53:42.130Z,9.98
2023-01-18T12:56:24.902Z,10.00
2023-01-18T12:59:06.592Z,11.38
2023-01-18T13:01:43.331Z,5.85
2023-01-18T13:04:47.248Z,7.28
2023-01-18T13:07:27.288Z,5.07
2023-01-18T13:09:59.087Z,9.60
2023-01-18T13:12:33.929Z,5.90
2023-01-18T13:15:27.110Z,9.57
2023-01-18T13:18:08.435Z,4.50
2023-01-18T13:20:56.140Z,7.70
2023-01-18T13:23:49.483Z,11.32
2023-01-18T13:26:31.857Z,6.78
2023-01-18T13:29:23.315Z,10.43
2023-01-18T13:31:54.033Z,6.82
2023-01-18T13:34:48.270Z,9.27
2023-01-18T13:37:42.330Z,9.23
2023-01-18T13:40:33.208Z,7.55
2023-01-18T13:43:02.967Z,8.57
2023-01-18T13:45:33.890Z,8.20
2023-01-18T13:48:07.973Z,8.98
2023-01-18T13:50:45.509Z,11.00
2023-01-18T13:53:32.251Z,10.32
2023-01-18T13:56:06.467Z,6.20
2023-01-18T13:58:41.546Z,10.98
2023-01-18T14:01:24.711Z,12.50
2023-01-18T14:03:57.612Z,8.88
2023-01-18T14:06:31.826Z,9.32
2023-01-18T14:09:07.652Z,7.72
2023-01-18T14:11:45.881Z,12.15
2023-01-18T14:14:19.654Z,11.63
2023-01-18T14:17:16.070Z,12.37
2023-01-18T14:19:48.887Z,10.30
2023-01-18T14:22:22.364Z,6.72
2023-01-18T14:25:12.087Z,14.85
2023-01-18T14:27:47.897Z,19.73
2023-01-18T14:30:31.594Z,8.43
2023-01-18T14:33:11.250Z,15.05
2023-01-18T14:35:52.979Z,5.03
2023-01-18T14:38:23.674Z,16.62
2023-01-18T14:43:38.415Z,12.13
2023-01-18T14:46:20.853Z,5.05
2023-01-18T14:48:58.438Z,7.90
2023-01-18T14:51:32.421Z,10.82
2023-01-18T14:54:07.421Z,14.93
2023-01-18T14:56:44.166Z,10.05
2023-01-18T14:59:25.857Z,10.32
2023-01-18T15:02:07.219Z,8.20
2023-01-18T15:04:40.975Z,15.10
2023-01-18T15:07:21.222Z,8.82
2023-01-18T15:09:54.875Z,8.18
2023-01-18T15:12:37.613Z,9.98
2023-01-18T15:15:33.219Z,10.27
2023-01-18T15:18:24.766Z,13.15
2023-01-18T15:21:00.045Z,12.23
2023-01-18T15:23:34.139Z,10.50
2023-01-18T15:26:07.249Z,10.80
2023-01-18T15:28:37.963Z,11.35
2023-01-18T15:31:17.183Z,10.10
2023-01-18T15:33:47.055Z,7.68
2023-01-18T15:36:19.114Z,11.32
2023-01-18T15:38:52.251Z,12.02
2023-01-18T15:41:22.106Z,12.77
2023-01-18T15:43:55.642Z,10.35
2023-01-18T15:46:29.844Z,6.30
2023-01-18T15:49:04.879Z,9.43
2023-01-18T15:51:57.661Z,6.85
2023-01-18T15:54:33.451Z,13.45
2023-01-18T15:57:19.295Z,9.95
2023-01-18T15:59:51.747Z,12.43
2023-01-18T16:02:29.856Z,17.00
2023-01-18T16:05:32.713Z,13.82
2023-01-18T16:08:21.406Z,10.40
2023-01-18T16:13:35.121Z,7.53
2023-01-18T16:16:18.660Z,14.30
2023-01-18T16:21:43.654Z,9.98
2023-01-18T16:24:39.173Z,12.32
2023-01-18T16:27:18.713Z,11.90
2023-01-18T16:29:54.951Z,10.65
2023-01-18T16:32:32.206Z,12.57
2023-01-18T16:35:24.643Z,13.68
2023-01-18T16:37:58.530Z,14.85
2023-01-18T16:40:31.046Z,14.75
2023-01-18T16:43:20.325Z,13.27
2023-01-18T16:45:55.456Z,14.40
2023-01-18T16:48:26.750Z,15.43
2023-01-18T16:50:56.653Z,13.85
2023-01-18T16:53:29.524Z,12.73
2023-01-18T16:56:01.037Z,14.93
2023-01-18T16:58:31.483Z,18.52
2023-01-18T17:01:10.116Z,10.43
2023-01-18T17:03:42.274Z,11.63
2023-01-18T17:06:24.534Z,10.77
2023-01-18T17:08:56.651Z,13.32
2023-01-18T17:11:28.482Z,14.32
2023-01-18T17:14:06.053Z,15.32
2023-01-18T17:16:42.865Z,15.00
2023-01-18T17:19:17.332Z,13.52
2023-01-18T17:21:50.625Z,18.90
2023-01-18T17:24:26.080Z,13.30
2023-01-18T17:26:55.687Z,14.98
2023-01-18T17:29:26.055Z,18.60
2023-01-18T17:34:44.629Z,16.10
2023-01-18T17:37:16.546Z,19.67
2023-01-18T17:40:02.728Z,10.95
2023-01-18T17:42:40.505Z,13.57
2023-01-18T17:48:03.239Z,15.88
2023-01-18T17:50:36.007Z,20.23
2023-01-18T17:53:05.210Z,13.77
2023-01-18T17:55:38.130Z,21.77
2023-01-18T17:58:08.980Z,16.83
2023-01-18T18:00:44.197Z,25.62
2023-01-18T18:03:13.698Z,21.77
2023-01-18T18:05:44.823Z,22.37
2023-01-18T18:08:19.682Z,13.50
2023-01-18T18:10:52.140Z,16.30
2023-01-18T18:13:24.222Z,27.02
2023-01-18T18:15:55.216Z,9.85
2023-01-18T18:18:24.823Z,12.95
2023-01-18T18:21:07.631Z,16.77
2023-01-18T18:23:38.606Z,21.00
2023-01-18T18:26:09.575Z,23.85
2023-01-18T18:28:43.023Z,13.45
2023-01-18T18:31:16.362Z,12.52
2023-01-18T18:36:35.692Z,13.43
2023-01-18T18:39:08.861Z,21.35
2023-01-18T18:41:40.141Z,20.60
2023-01-18T18:44:10.756Z,18.10
2023-01-18T18:46:41.802Z,17.05
2023-01-18T18:49:12.044Z,14.60
2023-01-18T18:51:46.503Z,17.08
2023-01-18T18:54:18.252Z,15.93
2023-01-18T18:56:49.452Z,23.27
2023-01-18T18:59:22.863Z,32.25
2023-01-18T19:01:53.257Z,20.58
2023-01-18T19:04:22.938Z,47.08
2023-01-18T19:06:51.310Z,37.90
2023-01-18T19:09:21.717Z,45.28
2023-01-18T19:11:55.454Z,24.35
2023-01-18T19:14:27.296Z,24.02
2023-01-18T19:16:58.976Z,30.37
2023-01-18T19:19:27.655Z,30.50
2023-01-18T19:21:57.768Z,30.77
2023-01-18T19:24:34.293Z,40.55
2023-01-18T19:27:05.339Z,38.88
2023-01-18T19:29:36.131Z,30.35
2023-01-18T19:32:07.307Z,45.72
2023-01-18T19:34:39.589Z,36.08
2023-01-18T19:37:09.124Z,26.40
2023-01-18T19:39:39.419Z,43.97
2023-01-18T19:42:11.453Z,28.40
2023-01-18T19:44:41.334Z,31.00
2023-01-18T19:47:10.844Z,26.75
2023-01-18T19:49:41.893Z,24.98
2023-01-18T19:52:12.985Z,18.35
2023-01-18T19:54:43.063Z,23.52
2023-01-18T19:57:13.695Z,30.25
2023-01-18T19:59:43.648Z,28.77
2023-01-18T20:02:14.638Z,34.92
2023-01-18T20:04:43.783Z,21.65
2023-01-18T20:07:13.303Z,21.83
2023-01-18T20:09:43.537Z,14.30
2023-01-18T20:12:15.197Z,16.23
2023-01-18T20:14:45.437Z,12.13
2023-01-18T20:17:17.686Z,21.95
2023-01-18T20:19:45.911Z,16.35
2023-01-18T20:22:14.233Z,11.50
2023-01-18T20:24:45.796Z,23.08
2023-01-18T20:27:19.353Z,27.67
2023-01-18T20:29:47.485Z,20.42
2023-01-18T20:32:17.410Z,16.50
2023-01-18T20:34:47.583Z,27.65
2023-01-18T20:37:16.701Z,16.87
2023-01-18T20:39:44.890Z,34.45
2023-01-18T20:42:12.881Z,23.92
2023-01-18T20:44:41.156Z,16.40
2023-01-18T20:47:10.023Z,21.33
2023-01-18T20:49:40.494Z,16.02
2023-01-18T20:52:09.850Z,18.87
2023-01-18T20:54:38.051Z,22.98
2023-01-18T20:57:07.461Z,17.33
2023-01-18T20:59:38.986Z,14.27
2023-01-18T21:02:07.704Z,25.27
2023-01-18T21:04:39.042Z,17.02
2023-01-18T21:07:09.818Z,18.02
2023-01-18T21:09:38.180Z,21.15
2023-01-18T21:12:06.121Z,21.45
2023-01-18T21:14:33.833Z,17.67
2023-01-18T21:17:02.138Z,20.48
2023-01-18T21:19:30.184Z,14.77
2023-01-18T21:21:58.028Z,20.67
2023-01-18T21:24:26.653Z,21.05
2023-01-18T21:26:54.569Z,23.45
2023-01-18T21:29:22.557Z,10.68
2023-01-18T21:31:53.931Z,19.75
2023-01-18T21:34:22.358Z,17.60
2023-01-18T21:36:51.705Z,22.48
2023-01-18T21:39:25.779Z,14.27
2023-01-18T21:42:13.768Z,15.50
2023-01-18T21:45:00.159Z,19.25
2023-01-18T21:47:28.356Z,10.18
2023-01-18T21:50:18.633Z,15.88
2023-01-18T21:53:05.612Z,20.10
2023-01-18T21:55:33.904Z,12.50
2023-01-18T21:58:20.891Z,16.90
2023-01-18T22:00:48.726Z,21.02
2023-01-18T22:03:18.706Z,15.48
2023-01-18T22:05:46.403Z,18.83
2023-01-18T22:08:14.162Z,21.10
2023-01-18T22:10:45.700Z,24.52
2023-01-18T22:13:13.551Z,19.33
2023-01-18T22:15:41.386Z,16.58
2023-01-18T22:20:57.599Z,12.73
2023-01-18T22:23:25.710Z,21.92
2023-01-18T22:25:56.497Z,23.08
2023-01-18T22:28:24.295Z,28.30
2023-01-18T22:30:52.705Z,15.43
2023-01-18T22:33:20.735Z,20.88
2023-01-18T22:35:48.401Z,16.17
2023-01-18T22:38:16.716Z,20.02
2023-01-18T22:40:44.642Z,15.88
2023-01-18T22:43:12.453Z,16.95
2023-01-18T22:45:40.715Z,12.00
2023-01-18T22:48:08.443Z,14.07
2023-01-18T22:50:36.369Z,10.52
2023-01-18T22:53:06.044Z,17.17
2023-01-18T22:55:34.556Z,13.48
2023-01-18T22:58:02.765Z,23.55
2023-01-18T23:00:32.265Z,20.80
2023-01-18T23:03:00.207Z,10.63
2023-01-18T23:05:28.069Z,22.85
2023-01-18T23:07:56.410Z,24.37
2023-01-18T23:10:24.159Z,20.52
2023-01-18T23:12:53.602Z,19.65
2023-01-18T23:15:40.436Z,15.32
2023-01-18T23:18:08.292Z,23.17
2023-01-18T23:20:39.924Z,24.80
2023-01-18T23:23:07.896Z,17.65
2023-01-18T23:25:36.119Z,14.87
2023-01-18T23:28:05.442Z,14.40
2023-01-18T23:30:33.365Z,22.90
2023-01-18T23:33:04.737Z,8.85
2023-01-18T23:35:35.340Z,13.90
2023-01-18T23:38:06.915Z,16.08
2023-01-18T23:40:53.088Z,21.00
2023-01-18T23:43:39.889Z,17.23
2023-01-18T23:46:26.367Z,16.60
2023-01-18T23:49:13.355Z,16.25
2023-01-18T23:52:02.334Z,16.50
2023-01-18T23:54:30.732Z,16.20
2023-01-18T23:56:58.573Z,19.70
2023-01-18T23:59:29.919Z,11.82
